sensor_id;sensor_type;location;lat;lon;timestamp;P1;durP1;ratioP1;P2;durP2;ratioP2
17997;SDS011;9124;48.144;17.098;2023-07-30T00:02:09;6.85;;;2.80;;
17997;SDS011;9124;48.144;17.098;2023-07-30T00:06:35;4.90;;;2.90;;
17997;SDS011;9124;48.144;17.098;2023-07-30T00:11:01;3.13;;;2.53;;
17997;SDS011;9124;48.144;17.098;2023-07-30T00:15:27;4.00;;;3.20;;
17997;SDS011;9124;48.144;17.098;2023-07-30T00:19:54;4.20;;;2.38;;
17997;SDS011;9124;48.144;17.098;2023-07-30T00:29:06;3.17;;;2.95;;
17997;SDS011;9124;48.144;17.098;2023-07-30T00:33:32;6.15;;;2.95;;
17997;SDS011;9124;48.144;17.098;2023-07-30T00:37:59;3.55;;;3.35;;
17997;SDS011;9124;48.144;17.098;2023-07-30T00:42:25;3.60;;;3.40;;
17997;SDS011;9124;48.144;17.098;2023-07-30T00:46:52;3.83;;;3.53;;
17997;SDS011;9124;48.144;17.098;2023-07-30T00:51:18;3.38;;;3.08;;
17997;SDS011;9124;48.144;17.098;2023-07-30T00:55:46;3.80;;;3.50;;
17997;SDS011;9124;48.144;17.098;2023-07-30T01:00:13;3.92;;;3.72;;
17997;SDS011;9124;48.144;17.098;2023-07-30T01:04:42;5.60;;;3.65;;
17997;SDS011;9124;48.144;17.098;2023-07-30T01:09:08;3.72;;;3.50;;
17997;SDS011;9124;48.144;17.098;2023-07-30T01:13:36;3.38;;;3.17;;
17997;SDS011;9124;48.144;17.098;2023-07-30T01:18:03;3.92;;;3.60;;
17997;SDS011;9124;48.144;17.098;2023-07-30T01:22:30;3.17;;;2.97;;
17997;SDS011;9124;48.144;17.098;2023-07-30T01:26:58;3.30;;;3.10;;
17997;SDS011;9124;48.144;17.098;2023-07-30T01:31:29;3.58;;;3.25;;
17997;SDS011;9124;48.144;17.098;2023-07-30T01:35:58;3.13;;;2.92;;
17997;SDS011;9124;48.144;17.098;2023-07-30T01:40:26;2.90;;;2.70;;
17997;SDS011;9124;48.144;17.098;2023-07-30T01:44:52;3.10;;;2.75;;
17997;SDS011;9124;48.144;17.098;2023-07-30T01:49:18;2.63;;;2.50;;
17997;SDS011;9124;48.144;17.098;2023-07-30T01:53:45;2.88;;;2.67;;
17997;SDS011;9124;48.144;17.098;2023-07-30T01:58:12;2.85;;;2.67;;
17997;SDS011;9124;48.144;17.098;2023-07-30T02:02:42;3.08;;;2.78;;
17997;SDS011;9124;48.144;17.098;2023-07-30T02:07:08;4.90;;;3.45;;
17997;SDS011;9124;48.144;17.098;2023-07-30T02:11:34;4.95;;;3.65;;
17997;SDS011;9124;48.144;17.098;2023-07-30T02:16:01;7.80;;;4.90;;
17997;SDS011;9124;48.144;17.098;2023-07-30T02:20:27;4.40;;;4.00;;
17997;SDS011;9124;48.144;17.098;2023-07-30T02:24:53;6.43;;;3.67;;
17997;SDS011;9124;48.144;17.098;2023-07-30T02:29:23;6.03;;;4.05;;
17997;SDS011;9124;48.144;17.098;2023-07-30T02:33:49;5.25;;;3.75;;
17997;SDS011;9124;48.144;17.098;2023-07-30T02:38:15;3.72;;;3.40;;
17997;SDS011;9124;48.144;17.098;2023-07-30T02:42:41;5.22;;;3.20;;
17997;SDS011;9124;48.144;17.098;2023-07-30T02:52:00;3.10;;;2.90;;
17997;SDS011;9124;48.144;17.098;2023-07-30T02:56:26;3.45;;;3.15;;
17997;SDS011;9124;48.144;17.098;2023-07-30T03:05:44;3.05;;;2.65;;
17997;SDS011;9124;48.144;17.098;2023-07-30T03:10:11;3.05;;;2.85;;
17997;SDS011;9124;48.144;17.098;2023-07-30T03:14:37;3.08;;;2.65;;
17997;SDS011;9124;48.144;17.098;2023-07-30T03:19:04;2.95;;;2.63;;
17997;SDS011;9124;48.144;17.098;2023-07-30T03:23:30;2.97;;;2.88;;
17997;SDS011;9124;48.144;17.098;2023-07-30T03:27:57;2.75;;;2.55;;
17997;SDS011;9124;48.144;17.098;2023-07-30T03:32:23;2.80;;;2.60;;
17997;SDS011;9124;48.144;17.098;2023-07-30T03:36:50;2.80;;;2.60;;
17997;SDS011;9124;48.144;17.098;2023-07-30T03:41:16;3.08;;;2.88;;
17997;SDS011;9124;48.144;17.098;2023-07-30T03:45:43;2.60;;;2.40;;
17997;SDS011;9124;48.144;17.098;2023-07-30T03:50:09;3.45;;;2.47;;
17997;SDS011;9124;48.144;17.098;2023-07-30T03:54:36;2.10;;;2.00;;
17997;SDS011;9124;48.144;17.098;2023-07-30T03:59:02;2.40;;;2.20;;
17997;SDS011;9124;48.144;17.098;2023-07-30T04:03:28;2.55;;;2.40;;
17997;SDS011;9124;48.144;17.098;2023-07-30T04:07:54;2.65;;;2.45;;
17997;SDS011;9124;48.144;17.098;2023-07-30T04:12:22;2.75;;;2.55;;
17997;SDS011;9124;48.144;17.098;2023-07-30T04:16:48;6.40;;;2.65;;
17997;SDS011;9124;48.144;17.098;2023-07-30T04:21:15;2.60;;;2.42;;
17997;SDS011;9124;48.144;17.098;2023-07-30T04:25:41;2.58;;;2.35;;
17997;SDS011;9124;48.144;17.098;2023-07-30T04:30:08;2.58;;;2.38;;
17997;SDS011;9124;48.144;17.098;2023-07-30T04:40:47;2.35;;;2.25;;
17997;SDS011;9124;48.144;17.098;2023-07-30T04:45:14;2.67;;;2.50;;
17997;SDS011;9124;48.144;17.098;2023-07-30T04:49:45;4.05;;;2.45;;
17997;SDS011;9124;48.144;17.098;2023-07-30T04:54:11;3.50;;;2.58;;
17997;SDS011;9124;48.144;17.098;2023-07-30T04:58:37;2.50;;;2.40;;
17997;SDS011;9124;48.144;17.098;2023-07-30T05:03:04;3.00;;;2.30;;
17997;SDS011;9124;48.144;17.098;2023-07-30T05:07:30;2.00;;;1.90;;
17997;SDS011;9124;48.144;17.098;2023-07-30T05:11:57;2.42;;;2.33;;
17997;SDS011;9124;48.144;17.098;2023-07-30T05:16:23;2.42;;;2.33;;
17997;SDS011;9124;48.144;17.098;2023-07-30T05:20:49;5.32;;;2.40;;
17997;SDS011;9124;48.144;17.098;2023-07-30T05:25:16;2.80;;;2.60;;
17997;SDS011;9124;48.144;17.098;2023-07-30T05:29:42;2.75;;;2.40;;
17997;SDS011;9124;48.144;17.098;2023-07-30T05:34:08;3.05;;;2.40;;
17997;SDS011;9124;48.144;17.098;2023-07-30T05:38:35;3.35;;;2.50;;
17997;SDS011;9124;48.144;17.098;2023-07-30T05:43:01;2.65;;;2.45;;
17997;SDS011;9124;48.144;17.098;2023-07-30T05:47:28;3.30;;;2.33;;
17997;SDS011;9124;48.144;17.098;2023-07-30T05:51:54;2.47;;;2.38;;
17997;SDS011;9124;48.144;17.098;2023-07-30T05:56:20;4.65;;;4.25;;
17997;SDS011;9124;48.144;17.098;2023-07-30T06:00:47;4.05;;;3.75;;
17997;SDS011;9124;48.144;17.098;2023-07-30T06:05:13;2.83;;;2.65;;
17997;SDS011;9124;48.144;17.098;2023-07-30T06:09:40;2.80;;;2.60;;
17997;SDS011;9124;48.144;17.098;2023-07-30T06:14:06;2.50;;;2.30;;
17997;SDS011;9124;48.144;17.098;2023-07-30T06:24:51;5.55;;;2.38;;
17997;SDS011;9124;48.144;17.098;2023-07-30T06:35:30;2.30;;;2.20;;
17997;SDS011;9124;48.144;17.098;2023-07-30T06:39:56;3.05;;;2.85;;
17997;SDS011;9124;48.144;17.098;2023-07-30T06:44:23;4.07;;;2.47;;
17997;SDS011;9124;48.144;17.098;2023-07-30T06:48:51;2.50;;;2.38;;
17997;SDS011;9124;48.144;17.098;2023-07-30T06:53:17;2.72;;;1.92;;
17997;SDS011;9124;48.144;17.098;2023-07-30T06:57:44;2.17;;;2.08;;
17997;SDS011;9124;48.144;17.098;2023-07-30T07:02:10;3.05;;;2.53;;
17997;SDS011;9124;48.144;17.098;2023-07-30T07:06:36;2.65;;;2.50;;
17997;SDS011;9124;48.144;17.098;2023-07-30T07:11:03;2.35;;;2.25;;
17997;SDS011;9124;48.144;17.098;2023-07-30T07:15:30;3.33;;;2.28;;
17997;SDS011;9124;48.144;17.098;2023-07-30T07:19:57;2.45;;;2.35;;
17997;SDS011;9124;48.144;17.098;2023-07-30T07:24:23;2.15;;;2.05;;
17997;SDS011;9124;48.144;17.098;2023-07-30T07:28:50;3.88;;;2.63;;
17997;SDS011;9124;48.144;17.098;2023-07-30T07:33:17;2.25;;;2.15;;
17997;SDS011;9124;48.144;17.098;2023-07-30T07:37:43;2.50;;;2.05;;
17997;SDS011;9124;48.144;17.098;2023-07-30T07:42:09;2.10;;;2.00;;
17997;SDS011;9124;48.144;17.098;2023-07-30T07:46:36;2.58;;;2.42;;
17997;SDS011;9124;48.144;17.098;2023-07-30T07:51:03;2.42;;;2.22;;
17997;SDS011;9124;48.144;17.098;2023-07-30T07:55:29;2.30;;;2.20;;
17997;SDS011;9124;48.144;17.098;2023-07-30T07:59:56;1.98;;;1.88;;
17997;SDS011;9124;48.144;17.098;2023-07-30T08:04:23;2.40;;;2.20;;
17997;SDS011;9124;48.144;17.098;2023-07-30T08:08:49;6.30;;;2.55;;
17997;SDS011;9124;48.144;17.098;2023-07-30T08:13:16;2.55;;;2.40;;
17997;SDS011;9124;48.144;17.098;2023-07-30T08:17:42;2.40;;;2.30;;
17997;SDS011;9124;48.144;17.098;2023-07-30T08:22:08;2.42;;;2.33;;
17997;SDS011;9124;48.144;17.098;2023-07-30T08:26:35;2.40;;;2.30;;
17997;SDS011;9124;48.144;17.098;2023-07-30T08:31:01;2.30;;;2.08;;
17997;SDS011;9124;48.144;17.098;2023-07-30T08:35:28;2.47;;;1.70;;
17997;SDS011;9124;48.144;17.098;2023-07-30T08:39:56;2.05;;;1.95;;
17997;SDS011;9124;48.144;17.098;2023-07-30T08:44:22;2.42;;;2.22;;
17997;SDS011;9124;48.144;17.098;2023-07-30T08:48:48;2.25;;;2.15;;
17997;SDS011;9124;48.144;17.098;2023-07-30T08:53:14;3.88;;;2.05;;
17997;SDS011;9124;48.144;17.098;2023-07-30T08:57:41;3.28;;;1.90;;
17997;SDS011;9124;48.144;17.098;2023-07-30T09:02:12;1.77;;;1.67;;
17997;SDS011;9124;48.144;17.098;2023-07-30T09:06:43;1.65;;;1.63;;
17997;SDS011;9124;48.144;17.098;2023-07-30T09:11:13;2.63;;;1.45;;
17997;SDS011;9124;48.144;17.098;2023-07-30T09:15:39;1.40;;;1.40;;
17997;SDS011;9124;48.144;17.098;2023-07-30T09:20:06;1.77;;;1.15;;
17997;SDS011;9124;48.144;17.098;2023-07-30T09:24:32;1.33;;;1.33;;
17997;SDS011;9124;48.144;17.098;2023-07-30T09:28:59;1.42;;;1.42;;
17997;SDS011;9124;48.144;17.098;2023-07-30T09:33:25;1.70;;;1.60;;
17997;SDS011;9124;48.144;17.098;2023-07-30T09:38:00;1.92;;;1.83;;
17997;SDS011;9124;48.144;17.098;2023-07-30T09:42:28;1.38;;;1.38;;
17997;SDS011;9124;48.144;17.098;2023-07-30T09:46:55;2.13;;;2.03;;
17997;SDS011;9124;48.144;17.098;2023-07-30T09:51:22;2.03;;;1.80;;
17997;SDS011;9124;48.144;17.098;2023-07-30T09:55:49;1.50;;;1.50;;
17997;SDS011;9124;48.144;17.098;2023-07-30T10:00:16;1.92;;;1.83;;
17997;SDS011;9124;48.144;17.098;2023-07-30T10:04:43;1.85;;;1.75;;
17997;SDS011;9124;48.144;17.098;2023-07-30T10:09:15;1.98;;;1.88;;
17997;SDS011;9124;48.144;17.098;2023-07-30T10:13:48;1.58;;;1.58;;
17997;SDS011;9124;48.144;17.098;2023-07-30T10:18:16;2.25;;;1.88;;
17997;SDS011;9124;48.144;17.098;2023-07-30T10:22:42;2.08;;;1.98;;
17997;SDS011;9124;48.144;17.098;2023-07-30T10:27:11;2.22;;;2.10;;
17997;SDS011;9124;48.144;17.098;2023-07-30T10:31:54;1.83;;;1.73;;
17997;SDS011;9124;48.144;17.098;2023-07-30T10:36:41;1.95;;;1.80;;
17997;SDS011;9124;48.144;17.098;2023-07-30T10:41:12;1.98;;;1.88;;
17997;SDS011;9124;48.144;17.098;2023-07-30T10:45:49;2.15;;;2.00;;
17997;SDS011;9124;48.144;17.098;2023-07-30T10:50:17;2.20;;;2.00;;
17997;SDS011;9124;48.144;17.098;2023-07-30T10:54:48;2.03;;;1.92;;
17997;SDS011;9124;48.144;17.098;2023-07-30T10:59:14;2.20;;;2.10;;
17997;SDS011;9124;48.144;17.098;2023-07-30T11:03:47;2.25;;;2.15;;
17997;SDS011;9124;48.144;17.098;2023-07-30T11:08:16;2.25;;;1.90;;
17997;SDS011;9124;48.144;17.098;2023-07-30T11:12:43;1.90;;;1.80;;
17997;SDS011;9124;48.144;17.098;2023-07-30T11:17:09;2.42;;;1.77;;
17997;SDS011;9124;48.144;17.098;2023-07-30T11:21:35;2.17;;;1.65;;
17997;SDS011;9124;48.144;17.098;2023-07-30T11:26:19;1.80;;;1.80;;
17997;SDS011;9124;48.144;17.098;2023-07-30T11:30:46;1.80;;;1.70;;
17997;SDS011;9124;48.144;17.098;2023-07-30T11:35:12;2.40;;;2.20;;
17997;SDS011;9124;48.144;17.098;2023-07-30T11:39:42;2.38;;;2.17;;
17997;SDS011;9124;48.144;17.098;2023-07-30T11:44:08;2.05;;;1.80;;
17997;SDS011;9124;48.144;17.098;2023-07-30T11:49:10;8.48;;;4.47;;
17997;SDS011;9124;48.144;17.098;2023-07-30T11:53:49;6.82;;;3.80;;
17997;SDS011;9124;48.144;17.098;2023-07-30T11:58:42;6.18;;;3.60;;
17997;SDS011;9124;48.144;17.098;2023-07-30T12:03:10;4.15;;;2.92;;
17997;SDS011;9124;48.144;17.098;2023-07-30T12:07:41;4.20;;;2.30;;
17997;SDS011;9124;48.144;17.098;2023-07-30T12:12:08;2.95;;;1.75;;
17997;SDS011;9124;48.144;17.098;2023-07-30T12:16:34;2.13;;;1.92;;
17997;SDS011;9124;48.144;17.098;2023-07-30T12:21:01;4.43;;;1.83;;
17997;SDS011;9124;48.144;17.098;2023-07-30T12:25:27;2.60;;;1.80;;
17997;SDS011;9124;48.144;17.098;2023-07-30T12:29:54;7.20;;;2.60;;
17997;SDS011;9124;48.144;17.098;2023-07-30T12:34:22;1.63;;;1.52;;
17997;SDS011;9124;48.144;17.098;2023-07-30T12:38:49;2.83;;;1.98;;
17997;SDS011;9124;48.144;17.098;2023-07-30T12:43:18;1.95;;;1.85;;
17997;SDS011;9124;48.144;17.098;2023-07-30T12:47:46;2.70;;;2.10;;
17997;SDS011;9124;48.144;17.098;2023-07-30T12:52:12;1.98;;;1.88;;
17997;SDS011;9124;48.144;17.098;2023-07-30T12:56:39;2.95;;;1.60;;
17997;SDS011;9124;48.144;17.098;2023-07-30T13:01:05;2.60;;;2.40;;
17997;SDS011;9124;48.144;17.098;2023-07-30T13:05:32;2.20;;;2.00;;
17997;SDS011;9124;48.144;17.098;2023-07-30T13:15:02;2.45;;;2.00;;
17997;SDS011;9124;48.144;17.098;2023-07-30T13:19:30;5.35;;;2.40;;
17997;SDS011;9124;48.144;17.098;2023-07-30T13:23:58;2.70;;;2.50;;
17997;SDS011;9124;48.144;17.098;2023-07-30T13:28:24;2.25;;;2.15;;
17997;SDS011;9124;48.144;17.098;2023-07-30T13:32:51;2.33;;;2.22;;
17997;SDS011;9124;48.144;17.098;2023-07-30T13:37:17;2.90;;;2.70;;
17997;SDS011;9124;48.144;17.098;2023-07-30T13:41:44;2.95;;;2.75;;
17997;SDS011;9124;48.144;17.098;2023-07-30T13:46:10;3.28;;;2.67;;
17997;SDS011;9124;48.144;17.098;2023-07-30T13:50:36;4.60;;;2.78;;
17997;SDS011;9124;48.144;17.098;2023-07-30T13:55:03;3.45;;;2.40;;
17997;SDS011;9124;48.144;17.098;2023-07-30T13:59:30;2.88;;;2.67;;
17997;SDS011;9124;48.144;17.098;2023-07-30T14:03:56;1.92;;;1.83;;
17997;SDS011;9124;48.144;17.098;2023-07-30T14:08:23;1.90;;;1.80;;
17997;SDS011;9124;48.144;17.098;2023-07-30T14:12:50;2.30;;;2.00;;
17997;SDS011;9124;48.144;17.098;2023-07-30T14:17:16;1.85;;;1.75;;
17997;SDS011;9124;48.144;17.098;2023-07-30T14:21:42;2.13;;;2.03;;
17997;SDS011;9124;48.144;17.098;2023-07-30T14:26:09;2.05;;;1.95;;
17997;SDS011;9124;48.144;17.098;2023-07-30T14:30:38;1.48;;;1.48;;
17997;SDS011;9124;48.144;17.098;2023-07-30T14:35:11;2.28;;;2.10;;
17997;SDS011;9124;48.144;17.098;2023-07-30T14:39:38;1.80;;;1.70;;
17997;SDS011;9124;48.144;17.098;2023-07-30T14:44:06;2.88;;;1.75;;
17997;SDS011;9124;48.144;17.098;2023-07-30T14:48:33;1.67;;;1.58;;
17997;SDS011;9124;48.144;17.098;2023-07-30T14:52:59;1.95;;;1.85;;
17997;SDS011;9124;48.144;17.098;2023-07-30T14:57:26;1.40;;;1.40;;
17997;SDS011;9124;48.144;17.098;2023-07-30T15:01:52;1.67;;;1.58;;
17997;SDS011;9124;48.144;17.098;2023-07-30T15:06:19;1.73;;;1.48;;
17997;SDS011;9124;48.144;17.098;2023-07-30T15:10:47;2.22;;;1.10;;
17997;SDS011;9124;48.144;17.098;2023-07-30T15:15:13;1.17;;;1.17;;
17997;SDS011;9124;48.144;17.098;2023-07-30T15:19:40;1.55;;;1.30;;
17997;SDS011;9124;48.144;17.098;2023-07-30T15:24:06;1.60;;;1.60;;
17997;SDS011;9124;48.144;17.098;2023-07-30T15:28:32;1.85;;;1.80;;
17997;SDS011;9124;48.144;17.098;2023-07-30T15:32:59;1.40;;;1.30;;
17997;SDS011;9124;48.144;17.098;2023-07-30T15:37:28;2.65;;;1.48;;
17997;SDS011;9124;48.144;17.098;2023-07-30T15:41:55;1.38;;;1.20;;
17997;SDS011;9124;48.144;17.098;2023-07-30T15:46:21;1.35;;;1.15;;
17997;SDS011;9124;48.144;17.098;2023-07-30T15:50:49;1.20;;;1.20;;
17997;SDS011;9124;48.144;17.098;2023-07-30T15:55:15;1.55;;;1.50;;
17997;SDS011;9124;48.144;17.098;2023-07-30T15:59:45;2.47;;;2.38;;
17997;SDS011;9124;48.144;17.098;2023-07-30T16:04:13;5.57;;;2.17;;
17997;SDS011;9124;48.144;17.098;2023-07-30T16:08:39;3.00;;;2.80;;
17997;SDS011;9124;48.144;17.098;2023-07-30T16:13:06;3.22;;;2.03;;
17997;SDS011;9124;48.144;17.098;2023-07-30T16:17:32;2.10;;;2.00;;
17997;SDS011;9124;48.144;17.098;2023-07-30T16:21:59;2.22;;;2.13;;
17997;SDS011;9124;48.144;17.098;2023-07-30T16:26:25;3.63;;;2.20;;
17997;SDS011;9124;48.144;17.098;2023-07-30T16:30:52;2.60;;;2.40;;
17997;SDS011;9124;48.144;17.098;2023-07-30T16:35:18;4.03;;;3.50;;
17997;SDS011;9124;48.144;17.098;2023-07-30T16:49:12;2.28;;;2.17;;
17997;SDS011;9124;48.144;17.098;2023-07-30T16:53:49;2.10;;;1.95;;
17997;SDS011;9124;48.144;17.098;2023-07-30T17:03:08;1.90;;;1.80;;
17997;SDS011;9124;48.144;17.098;2023-07-30T17:07:35;3.50;;;2.10;;
17997;SDS011;9124;48.144;17.098;2023-07-30T17:12:02;2.38;;;2.28;;
17997;SDS011;9124;48.144;17.098;2023-07-30T17:16:28;3.28;;;1.98;;
17997;SDS011;9124;48.144;17.098;2023-07-30T17:20:55;2.22;;;1.75;;
17997;SDS011;9124;48.144;17.098;2023-07-30T17:25:25;2.10;;;2.00;;
17997;SDS011;9124;48.144;17.098;2023-07-30T17:29:52;2.25;;;2.05;;
17997;SDS011;9124;48.144;17.098;2023-07-30T17:34:21;6.90;;;2.47;;
17997;SDS011;9124;48.144;17.098;2023-07-30T17:38:47;5.07;;;2.05;;
17997;SDS011;9124;48.144;17.098;2023-07-30T17:43:13;2.08;;;1.98;;
17997;SDS011;9124;48.144;17.098;2023-07-30T17:47:42;3.10;;;1.90;;
17997;SDS011;9124;48.144;17.098;2023-07-30T17:52:08;2.03;;;1.92;;
17997;SDS011;9124;48.144;17.098;2023-07-30T17:56:34;2.10;;;1.90;;
17997;SDS011;9124;48.144;17.098;2023-07-30T18:01:01;2.63;;;2.15;;
17997;SDS011;9124;48.144;17.098;2023-07-30T18:05:31;2.85;;;2.45;;
17997;SDS011;9124;48.144;17.098;2023-07-30T18:09:58;2.95;;;2.65;;
17997;SDS011;9124;48.144;17.098;2023-07-30T18:14:24;3.80;;;2.40;;
17997;SDS011;9124;48.144;17.098;2023-07-30T18:18:50;2.13;;;2.03;;
17997;SDS011;9124;48.144;17.098;2023-07-30T18:23:17;2.63;;;2.33;;
17997;SDS011;9124;48.144;17.098;2023-07-30T18:27:44;2.92;;;2.60;;
17997;SDS011;9124;48.144;17.098;2023-07-30T18:32:10;2.08;;;1.98;;
17997;SDS011;9124;48.144;17.098;2023-07-30T18:36:37;2.72;;;2.53;;
17997;SDS011;9124;48.144;17.098;2023-07-30T18:41:06;2.25;;;2.00;;
17997;SDS011;9124;48.144;17.098;2023-07-30T18:45:33;2.55;;;2.45;;
17997;SDS011;9124;48.144;17.098;2023-07-30T18:50:00;2.83;;;2.63;;
17997;SDS011;9124;48.144;17.098;2023-07-30T18:54:26;4.03;;;2.70;;
17997;SDS011;9124;48.144;17.098;2023-07-30T18:58:53;2.58;;;2.42;;
17997;SDS011;9124;48.144;17.098;2023-07-30T19:03:19;3.33;;;2.40;;
17997;SDS011;9124;48.144;17.098;2023-07-30T19:07:46;2.47;;;2.28;;
17997;SDS011;9124;48.144;17.098;2023-07-30T19:12:16;4.35;;;2.10;;
17997;SDS011;9124;48.144;17.098;2023-07-30T19:16:42;1.88;;;1.77;;
17997;SDS011;9124;48.144;17.098;2023-07-30T19:21:09;4.40;;;1.50;;
17997;SDS011;9124;48.144;17.098;2023-07-30T19:25:35;1.83;;;1.73;;
17997;SDS011;9124;48.144;17.098;2023-07-30T19:30:02;1.90;;;1.80;;
17997;SDS011;9124;48.144;17.098;2023-07-30T19:34:28;3.17;;;2.08;;
17997;SDS011;9124;48.144;17.098;2023-07-30T19:38:55;2.75;;;1.77;;
17997;SDS011;9124;48.144;17.098;2023-07-30T19:43:21;2.35;;;2.00;;
17997;SDS011;9124;48.144;17.098;2023-07-30T19:47:48;2.15;;;2.05;;
17997;SDS011;9124;48.144;17.098;2023-07-30T19:52:15;6.32;;;1.60;;
17997;SDS011;9124;48.144;17.098;2023-07-30T19:56:42;3.67;;;1.77;;
17997;SDS011;9124;48.144;17.098;2023-07-30T20:01:08;2.00;;;1.90;;
17997;SDS011;9124;48.144;17.098;2023-07-30T20:05:35;2.08;;;1.98;;
17997;SDS011;9124;48.144;17.098;2023-07-30T20:10:01;2.20;;;2.10;;
17997;SDS011;9124;48.144;17.098;2023-07-30T20:14:29;1.80;;;1.70;;
17997;SDS011;9124;48.144;17.098;2023-07-30T20:18:55;3.70;;;2.13;;
17997;SDS011;9124;48.144;17.098;2023-07-30T20:23:21;2.00;;;1.90;;
17997;SDS011;9124;48.144;17.098;2023-07-30T20:27:50;1.80;;;1.70;;
17997;SDS011;9124;48.144;17.098;2023-07-30T20:32:17;1.98;;;1.88;;
17997;SDS011;9124;48.144;17.098;2023-07-30T20:36:43;2.53;;;2.25;;
17997;SDS011;9124;48.144;17.098;2023-07-30T20:41:10;1.90;;;1.80;;
17997;SDS011;9124;48.144;17.098;2023-07-30T20:45:36;2.08;;;1.98;;
17997;SDS011;9124;48.144;17.098;2023-07-30T20:50:03;4.53;;;2.10;;
17997;SDS011;9124;48.144;17.098;2023-07-30T20:54:30;3.03;;;2.03;;
17997;SDS011;9124;48.144;17.098;2023-07-30T20:58:56;2.17;;;1.50;;
17997;SDS011;9124;48.144;17.098;2023-07-30T21:03:24;1.90;;;1.80;;
17997;SDS011;9124;48.144;17.098;2023-07-30T21:07:51;4.22;;;2.03;;
17997;SDS011;9124;48.144;17.098;2023-07-30T21:12:17;2.20;;;2.10;;
17997;SDS011;9124;48.144;17.098;2023-07-30T21:16:43;1.75;;;1.65;;
17997;SDS011;9124;48.144;17.098;2023-07-30T21:21:11;2.42;;;2.22;;
17997;SDS011;9124;48.144;17.098;2023-07-30T21:25:37;1.90;;;1.80;;
17997;SDS011;9124;48.144;17.098;2023-07-30T21:30:04;2.30;;;1.50;;
17997;SDS011;9124;48.144;17.098;2023-07-30T21:34:32;4.53;;;2.03;;
17997;SDS011;9124;48.144;17.098;2023-07-30T21:38:59;2.58;;;1.92;;
17997;SDS011;9124;48.144;17.098;2023-07-30T21:43:25;2.00;;;1.83;;
17997;SDS011;9124;48.144;17.098;2023-07-30T21:47:52;1.83;;;1.73;;
17997;SDS011;9124;48.144;17.098;2023-07-30T21:52:26;2.05;;;1.95;;
17997;SDS011;9124;48.144;17.098;2023-07-30T21:56:53;1.83;;;1.73;;
17997;SDS011;9124;48.144;17.098;2023-07-30T22:01:20;1.90;;;1.80;;
17997;SDS011;9124;48.144;17.098;2023-07-30T22:05:46;2.00;;;1.90;;
17997;SDS011;9124;48.144;17.098;2023-07-30T22:10:12;4.25;;;2.20;;
17997;SDS011;9124;48.144;17.098;2023-07-30T22:14:40;2.00;;;1.90;;
17997;SDS011;9124;48.144;17.098;2023-07-30T22:19:06;4.35;;;2.03;;
17997;SDS011;9124;48.144;17.098;2023-07-30T22:23:33;2.35;;;2.05;;
17997;SDS011;9124;48.144;17.098;2023-07-30T22:27:59;2.75;;;2.55;;
17997;SDS011;9124;48.144;17.098;2023-07-30T22:32:26;2.25;;;2.15;;
17997;SDS011;9124;48.144;17.098;2023-07-30T22:36:52;2.03;;;1.92;;
17997;SDS011;9124;48.144;17.098;2023-07-30T22:47:40;2.17;;;2.08;;
17997;SDS011;9124;48.144;17.098;2023-07-30T22:52:18;2.05;;;1.90;;
17997;SDS011;9124;48.144;17.098;2023-07-30T22:56:44;4.80;;;1.80;;
17997;SDS011;9124;48.144;17.098;2023-07-30T23:01:11;4.60;;;2.13;;
17997;SDS011;9124;48.144;17.098;2023-07-30T23:05:39;2.38;;;1.83;;
17997;SDS011;9124;48.144;17.098;2023-07-30T23:10:05;2.40;;;2.22;;
17997;SDS011;9124;48.144;17.098;2023-07-30T23:14:33;2.25;;;2.13;;
17997;SDS011;9124;48.144;17.098;2023-07-30T23:18:59;4.20;;;1.80;;
17997;SDS011;9124;48.144;17.098;2023-07-30T23:23:25;5.75;;;2.13;;
17997;SDS011;9124;48.144;17.098;2023-07-30T23:27:51;2.00;;;1.90;;
17997;SDS011;9124;48.144;17.098;2023-07-30T23:32:18;5.38;;;2.17;;
17997;SDS011;9124;48.144;17.098;2023-07-30T23:36:44;2.25;;;2.08;;
17997;SDS011;9124;48.144;17.098;2023-07-30T23:41:15;1.90;;;1.80;;
17997;SDS011;9124;48.144;17.098;2023-07-30T23:45:53;2.10;;;2.00;;
17997;SDS011;9124;48.144;17.098;2023-07-30T23:50:20;4.38;;;2.65;;
17997;SDS011;9124;48.144;17.098;2023-07-30T23:54:46;4.07;;;2.30;;
17997;SDS011;9124;48.144;17.098;2023-07-30T23:59:12;2.92;;;2.03;;
